Date,TemperatureHighF,TemperatureAvgF,TemperatureLowF,DewpointHighF,DewpointAvgF,DewpointLowF,HumidityHigh,HumidityAvg,HumidityLow,PressureMaxIn,PressureMinIn,WindSpeedMaxMPH,WindSpeedAvgMPH,GustSpeedMaxMPH,PrecipitationSumIn
2012-12-1,65.2,48.8,36.9,45.5,39.3,33.5,90,72,43,30.36,30.28,6,0,6,0.00
2012-12-2,66.3,53.8,42.5,52.5,46.0,39.5,93,76,51,30.36,30.21,7,0,7,0.00
2012-12-3,74.9,62.3,54.2,54.4,52.8,51.0,92,73,46,30.25,30.17,6,0,6,0.00
2012-12-4,70.1,58.0,51.1,54.5,51.3,48.6,93,79,56,30.26,30.12,8,0,8,0.00
2012-12-5,64.2,58.6,44.9,55.8,52.4,42.3,92,80,72,30.17,30.06,8,0,8,0.00
2012-12-6,51.4,45.0,37.8,44.0,33.7,29.0,95,66,45,30.30,30.16,10,0,10,0.00
2012-12-7,56.7,48.7,44.5,47.8,41.5,33.8,94,76,64,30.18,29.95,3,0,3,0.01
2012-12-8,63.2,54.5,49.4,53.8,51.1,47.8,99,89,68,30.01,29.92,5,0,5,0.01
2012-12-9,69.9,60.6,53.2,60.6,55.7,50.7,99,85,65,30.08,29.93,7,0,7,0.01
2012-12-10,70.4,65.0,61.5,63.7,59.6,55.8,100,84,62,29.94,29.63,17,0,17,0.03
2012-12-11,64.2,56.9,49.8,57.3,43.8,34.1,90,63,39,30.10,29.66,10,0,10,0.00
2012-12-12,49.8,44.0,37.3,38.5,34.3,29.3,93,70,53,30.30,30.09,8,0,10,0.23
2012-12-13,50.1,41.3,34.6,44.6,36.4,30.8,100,84,59,30.36,30.24,14,0,14,0.16
2012-12-14,58.0,40.7,29.5,35.3,30.0,22.8,95,70,27,30.34,30.20,3,0,3,0.00
2012-12-15,56.9,44.7,35.2,37.8,33.2,28.6,87,66,36,30.24,30.05,5,0,5,0.00
2012-12-16,57.6,53.7,47.0,54.6,50.8,37.6,98,90,62,30.06,29.85,7,0,7,0.10
2012-12-17,60.5,57.1,54.2,57.8,54.5,53.2,100,92,79,29.85,29.57,14,0,14,0.18
2012-12-18,61.8,54.0,40.5,54.2,44.1,31.5,95,71,42,29.86,29.59,12,0,12,0.00
2012-12-19,64.8,48.3,36.3,38.0,33.9,30.4,84,61,29,30.08,29.84,6,0,6,0.00
2012-12-20,61.3,49.1,40.2,60.4,42.6,35.3,97,79,58,30.13,29.40,19,0,19,0.40
2012-12-21,59.5,43.8,36.6,58.4,29.0,19.3,96,57,37,29.75,29.40,19,0,19,0.00
2012-12-22,49.6,39.8,33.4,24.7,20.3,15.5,62,46,26,30.06,29.75,12,0,12,0.00
2012-12-23,56.0,42.0,29.8,29.5,20.9,13.5,68,45,20,30.11,29.97,8,0,8,0.00
2012-12-24,52.2,48.5,45.4,46.5,35.3,27.6,88,61,46,29.99,29.85,7,0,7,0.00
2012-12-25,61.8,51.4,44.2,46.1,42.6,37.3,92,74,43,30.07,29.88,7,0,7,0.01
2012-12-26,46.8,43.0,37.9,46.8,42.1,37.8,100,97,80,30.05,29.39,11,0,11,0.18
2012-12-27,48.9,39.5,33.8,43.9,34.7,24.2,100,85,48,30.04,29.57,11,0,12,0.01
2012-12-28,44.8,37.4,28.2,32.2,27.0,23.4,85,67,47,30.16,29.97,7,0,7,0.00
2012-12-29,48.2,41.3,37.0,48.0,37.9,25.4,100,89,54,29.99,29.60,12,0,12,0.36
2012-12-30,46.1,37.6,31.5,25.8,21.3,15.8,68,53,31,30.35,29.89,14,0,14,0.00
2012-12-31,52.9,41.3,30.9,27.9,22.8,18.9,65,50,28,30.33,30.06,8,0,8,0.00